Time;durP1;ratioP1;P1;durP2;ratioP2;P2;SDS_P1;SDS_P2;PMS_P1;PMS_P2;Temp;Humidity;BMP_temperature;BMP_pressure;BME280_temperature;BME280_humidity;BME280_pressure;Samples;Min_cycle;Max_cycle;Signal;HPM_P1;HPM_P2
2024/04/14 00:00:20;;;;;;;18.63;17.13;;;13.80;99.90;;;;;;5431855;26;20280;-41
2024/04/14 00:02:45;;;;;;;18.27;16.97;;;13.80;1.00;;;;;;5433562;26;20242;-42
2024/04/14 00:05:12;;;;;;;18.30;16.90;;;13.80;1.00;;;;;;5434328;26;20760;-39
2024/04/14 00:07:38;;;;;;;17.83;16.53;;;13.80;1.00;;;;;;5434360;26;20222;-39
2024/04/14 00:10:03;;;;;;;18.80;17.30;;;13.70;1.00;;;;;;5435041;26;20439;-39
2024/04/14 00:12:29;;;;;;;18.20;17.00;;;13.70;99.90;;;;;;5434814;26;20238;-41
2024/04/14 00:14:55;;;;;;;18.10;16.70;;;13.70;99.90;;;;;;5433538;26;20272;-39
2024/04/14 00:17:21;;;;;;;17.47;16.17;;;13.70;99.90;;;;;;5434993;26;20234;-40
2024/04/14 00:19:52;;;;;;;18.07;16.77;;;13.60;99.90;;;;;;5431207;26;20538;-43
2024/04/14 00:22:18;;;;;;;17.63;16.43;;;13.60;99.90;;;;;;5433111;26;20237;-40
2024/04/14 00:24:43;;;;;;;17.03;15.83;;;13.50;99.90;;;;;;5432151;26;20467;-40
2024/04/14 00:27:09;;;;;;;17.30;16.03;;;13.50;99.90;;;;;;5433737;26;20471;-42
2024/04/14 00:29:35;;;;;;;17.23;16.07;;;13.50;99.90;;;;;;5398947;26;20248;-41
2024/04/14 00:32:00;;;;;;;17.63;16.23;;;13.50;1.00;;;;;;5437220;26;20226;-41
2024/04/14 00:34:26;;;;;;;17.70;16.50;;;13.40;1.00;;;;;;5436872;26;20237;-38
2024/04/14 00:36:51;;;;;;;16.70;15.60;;;13.40;1.00;;;;;;5437514;26;20280;-39
2024/04/14 00:39:17;;;;;;;17.07;15.97;;;13.40;1.00;;;;;;5436821;26;20755;-41
2024/04/14 00:41:43;;;;;;;16.93;15.63;;;13.40;1.00;;;;;;5437401;26;20238;-40
2024/04/14 00:44:08;;;;;;;16.30;15.13;;;13.40;1.00;;;;;;5437148;26;21234;-44
2024/04/14 00:46:34;;;;;;;17.77;16.57;;;13.40;1.00;;;;;;5436597;26;20280;-40
2024/04/14 00:49:02;;;;;;;16.70;15.40;;;13.30;1.00;;;;;;5437958;26;20228;-40
2024/04/14 00:51:27;;;;;;;17.67;16.17;;;13.30;1.00;;;;;;5436286;26;20281;-40
2024/04/14 00:53:53;;;;;;;16.60;15.40;;;13.30;1.00;;;;;;5437647;26;20459;-42
2024/04/14 00:56:20;;;;;;;17.77;16.57;;;13.20;1.00;;;;;;5437894;26;20983;-39
2024/04/14 00:58:47;;;;;;;16.60;15.40;;;13.30;1.00;;;;;;5437219;26;20459;-42
2024/04/14 01:01:16;;;;;;;17.90;16.50;;;13.30;1.00;;;;;;5432775;26;20460;-39
2024/04/14 01:03:42;;;;;;;17.40;16.07;;;13.30;1.00;;;;;;5432887;26;20475;-42
2024/04/14 01:06:08;;;;;;;17.53;16.07;;;13.20;1.00;;;;;;5437076;26;20569;-40
2024/04/14 01:08:34;;;;;;;18.33;17.03;;;13.20;1.00;;;;;;5436145;26;20517;-38
2024/04/14 01:10:59;;;;;;;17.67;16.27;;;13.20;1.00;;;;;;5437350;26;20248;-44
2024/04/14 01:13:25;;;;;;;17.97;16.67;;;13.20;1.00;;;;;;5435213;26;20577;-38
2024/04/14 01:15:51;;;;;;;17.90;16.40;;;13.10;1.00;;;;;;5437120;26;20222;-41
2024/04/14 01:18:16;;;;;;;17.53;16.13;;;13.10;1.00;;;;;;5435508;26;20234;-41
2024/04/14 01:20:42;;;;;;;17.50;16.20;;;13.10;1.00;;;;;;5437252;26;20242;-42
2024/04/14 01:23:08;;;;;;;18.40;16.70;;;13.00;1.00;;;;;;5435036;26;20245;-42
2024/04/14 01:25:33;;;;;;;17.00;15.80;;;13.00;1.00;;;;;;5435489;26;20419;-39
2024/04/14 01:27:59;;;;;;;17.43;16.23;;;13.00;1.00;;;;;;5436304;26;20277;-39
2024/04/14 01:30:27;;;;;;;16.37;15.23;;;13.00;1.00;;;;;;5437284;26;20284;-39
2024/04/14 01:32:53;;;;;;;17.90;16.50;;;13.00;1.00;;;;;;5434213;26;21293;-47
2024/04/14 01:35:18;;;;;;;16.70;15.30;;;13.00;1.00;;;;;;5437168;26;20456;-39
2024/04/14 01:37:44;;;;;;;17.03;15.83;;;13.00;1.00;;;;;;5436051;26;21020;-38
2024/04/14 01:40:11;;;;;;;16.80;15.70;;;13.00;1.00;;;;;;5434371;26;20301;-40
2024/04/14 01:42:37;;;;;;;17.00;15.60;;;13.00;1.00;;;;;;5435137;26;20230;-39
2024/04/14 01:45:03;;;;;;;17.47;16.07;;;12.90;1.00;;;;;;5436160;26;21078;-50
2024/04/14 01:47:28;;;;;;;16.87;15.83;;;12.90;1.00;;;;;;5404895;26;20452;-51
2024/04/14 01:49:54;;;;;;;15.87;14.77;;;12.90;1.00;;;;;;5434691;26;20284;-48
2024/04/14 01:52:19;;;;;;;16.00;14.80;;;12.90;1.00;;;;;;5433742;26;20242;-46
2024/04/14 01:54:45;;;;;;;14.90;14.00;;;12.90;1.00;;;;;;5434472;26;20281;-48
2024/04/14 01:57:10;;;;;;;15.80;14.70;;;12.90;1.00;;;;;;5430972;26;20257;-48
2024/04/14 01:59:37;;;;;;;15.07;14.10;;;12.90;1.00;;;;;;5434003;26;20241;-49
2024/04/14 02:02:03;;;;;;;15.20;14.20;;;12.90;1.00;;;;;;5432251;26;20234;-46
2024/04/14 02:04:28;;;;;;;15.03;14.03;;;13.00;1.00;;;;;;5433920;26;20464;-46
2024/04/14 02:07:11;;;;;;;16.30;15.13;;;13.00;1.00;;;;;;5434717;26;20313;-50
2024/04/14 02:09:37;;;;;;;14.70;13.70;;;13.00;1.00;;;;;;5436591;26;20292;-44
2024/04/14 02:12:02;;;;;;;14.47;13.57;;;13.10;1.00;;;;;;5418064;26;21872;-48
2024/04/14 02:14:28;;;;;;;14.67;13.67;;;13.10;1.00;;;;;;5436059;26;20272;-47
2024/04/14 02:16:54;;;;;;;13.73;12.90;;;13.20;1.00;;;;;;5433210;26;20234;-48
2024/04/14 02:19:19;;;;;;;14.00;13.20;;;13.20;1.00;;;;;;5435220;26;20237;-47
2024/04/14 02:21:45;;;;;;;13.30;12.60;;;13.20;1.00;;;;;;5435317;26;20234;-49
2024/04/14 02:24:10;;;;;;;13.77;12.80;;;13.30;99.90;;;;;;5433632;26;20230;-52
2024/04/14 02:26:36;;;;;;;13.33;12.53;;;13.40;10.10;;;;;;5436393;26;20272;-50
2024/04/14 02:29:02;;;;;;;13.13;12.43;;;13.50;1.00;;;;;;5435107;26;21717;-50
2024/04/14 02:31:27;;;;;;;13.00;12.30;;;13.50;99.90;;;;;;5436172;26;20359;-51
2024/04/14 02:33:53;;;;;;;13.27;12.47;;;13.60;99.90;;;;;;5434948;26;20277;-49
2024/04/14 02:36:20;;;;;;;12.30;11.63;;;13.80;99.90;;;;;;5436484;26;20260;-50
2024/04/14 02:38:45;;;;;;;12.67;11.97;;;14.00;99.90;;;;;;5435736;26;20226;-51
2024/04/14 02:41:11;;;;;;;12.73;12.03;;;14.10;99.90;;;;;;5436292;26;20560;-52
2024/04/14 02:43:38;;;;;;;12.97;12.27;;;14.20;1.00;;;;;;5434294;26;20253;-51
2024/04/14 02:46:04;;;;;;;13.13;12.40;;;14.30;1.00;;;;;;5434615;26;20937;-48
2024/04/14 02:48:29;;;;;;;12.93;12.23;;;14.30;99.90;;;;;;5435874;26;20452;-44
2024/04/14 02:50:55;;;;;;;13.57;12.57;;;14.30;99.90;;;;;;5434232;26;20284;-47
2024/04/14 02:53:22;;;;;;;12.90;12.13;;;14.40;19.60;;;;;;5434198;26;20641;-49
2024/04/14 02:55:48;;;;;;;11.90;11.20;;;14.60;1.00;;;;;;5436327;26;20359;-49
2024/04/14 02:58:14;;;;;;;12.50;11.80;;;14.80;99.90;;;;;;5434586;26;20460;-47
2024/04/14 03:00:39;;;;;;;12.60;11.90;;;14.90;1.00;;;;;;5435858;26;20226;-51
2024/04/14 03:03:05;;;;;;;13.17;12.37;;;15.00;1.00;;;;;;5436074;26;20301;-49
2024/04/14 03:05:30;;;;;;;12.20;11.60;;;14.90;1.00;;;;;;5434740;26;20337;-48
2024/04/14 03:07:57;;;;;;;11.90;11.30;;;15.00;1.00;;;;;;5435442;26;20356;-51
2024/04/14 03:10:23;;;;;;;12.57;11.90;;;15.10;1.00;;;;;;5435775;26;20238;-51
2024/04/14 03:12:50;;;;;;;11.60;11.00;;;15.00;1.00;;;;;;5434753;26;20577;-49
2024/04/14 03:15:16;;;;;;;12.47;11.73;;;15.10;1.00;;;;;;5433636;26;20280;-47
2024/04/14 03:17:41;;;;;;;12.10;11.40;;;15.20;1.00;;;;;;5431605;26;20459;-50
2024/04/14 03:20:07;;;;;;;12.83;12.03;;;15.30;99.90;;;;;;5435373;26;20234;-46
2024/04/14 03:22:33;;;;;;;12.70;12.00;;;15.50;99.90;;;;;;5432564;26;20280;-49
2024/04/14 03:24:58;;;;;;;12.63;11.83;;;15.50;99.90;;;;;;5434058;26;20455;-48
2024/04/14 03:27:24;;;;;;;10.80;10.30;;;15.50;99.90;;;;;;5435292;26;20234;-52
2024/04/14 03:29:50;;;;;;;13.07;12.20;;;15.60;99.90;;;;;;5435741;26;20326;-51
2024/04/14 03:32:15;;;;;;;12.40;11.57;;;15.70;99.90;;;;;;5435773;26;20260;-47
2024/04/14 03:34:42;;;;;;;12.37;11.67;;;15.70;99.90;;;;;;5434111;26;20238;-44
2024/04/14 03:37:09;;;;;;;11.67;10.77;;;15.70;99.90;;;;;;5435837;26;20611;-44
2024/04/14 03:39:35;;;;;;;12.03;11.23;;;15.70;99.90;;;;;;5434111;26;21025;-49
2024/04/14 03:42:00;;;;;;;12.20;11.60;;;15.70;99.90;;;;;;5435026;26;20467;-38
2024/04/14 03:44:30;;;;;;;12.63;11.83;;;15.80;99.90;;;;;;5433328;26;20786;-40
2024/04/14 03:46:55;;;;;;;12.70;11.90;;;15.70;99.90;;;;;;5434964;26;20302;-41
2024/04/14 03:49:21;;;;;;;11.93;11.33;;;15.70;99.90;;;;;;5434294;26;20523;-38
2024/04/14 03:51:47;;;;;;;12.10;11.40;;;15.60;99.90;;;;;;5435186;26;21258;-42
2024/04/14 03:54:12;;;;;;;12.43;11.83;;;15.60;99.90;;;;;;5434272;26;20295;-39
2024/04/14 03:56:38;;;;;;;11.60;11.00;;;15.60;99.90;;;;;;5433194;26;20274;-41
2024/04/14 03:59:03;;;;;;;12.83;12.00;;;15.60;99.90;;;;;;5435009;26;20642;-41
2024/04/14 04:01:29;;;;;;;12.13;11.47;;;15.60;99.90;;;;;;5434038;26;20221;-41
2024/04/14 04:03:55;;;;;;;11.37;10.80;;;15.70;99.90;;;;;;5431684;26;20280;-42
2024/04/14 04:06:21;;;;;;;13.00;12.20;;;15.70;99.90;;;;;;5431944;26;20459;-38
2024/04/14 04:08:47;;;;;;;12.33;11.73;;;15.60;99.90;;;;;;5432797;26;20511;-39
2024/04/14 04:11:12;;;;;;;12.30;11.70;;;15.60;99.90;;;;;;5433054;26;20659;-42
2024/04/14 04:13:38;;;;;;;12.20;11.60;;;15.60;99.90;;;;;;5433181;26;20317;-41
2024/04/14 04:16:05;;;;;;;11.83;11.23;;;15.50;99.90;;;;;;5431395;26;20241;-38
2024/04/14 04:18:32;;;;;;;12.37;11.77;;;15.50;99.90;;;;;;5431676;26;20238;-45
2024/04/14 04:21:03;;;;;;;11.40;10.90;;;15.40;99.90;;;;;;5433906;26;20467;-42
2024/04/14 04:23:29;;;;;;;12.13;11.33;;;15.30;99.90;;;;;;5434686;26;20993;-44
2024/04/14 04:25:56;;;;;;;12.17;11.47;;;15.20;99.90;;;;;;5430459;26;20589;-40
2024/04/14 04:28:23;;;;;;;11.53;10.83;;;15.20;1.00;;;;;;5429618;26;22038;-38
2024/04/14 04:30:52;;;;;;;12.00;11.30;;;15.10;1.00;;;;;;5431894;26;20463;-46
2024/04/14 04:33:17;;;;;;;12.47;11.77;;;15.10;1.00;;;;;;5433368;26;20890;-43
2024/04/14 04:35:53;;;;;;;11.53;10.93;;;15.10;1.00;;;;;;5434803;26;20455;-44
2024/04/14 04:38:19;;;;;;;12.30;11.60;;;15.00;1.00;;;;;;5429765;26;20237;-42
2024/04/14 04:40:44;;;;;;;12.27;11.60;;;15.00;1.00;;;;;;5431856;26;21139;-40
2024/04/14 04:43:10;;;;;;;12.20;11.50;;;15.00;1.00;;;;;;5429067;26;20287;-39
2024/04/14 04:45:35;;;;;;;12.53;11.90;;;15.00;1.00;;;;;;5432290;26;20246;-40
2024/04/14 04:48:01;;;;;;;12.50;11.70;;;15.00;99.90;;;;;;5434745;26;20245;-39
2024/04/14 04:50:28;;;;;;;11.90;11.10;;;15.00;99.90;;;;;;5432596;26;20760;-41
2024/04/14 04:52:53;;;;;;;11.73;11.13;;;15.00;99.90;;;;;;5433599;26;20273;-42
2024/04/14 04:55:19;;;;;;;11.60;11.00;;;15.00;99.90;;;;;;5401587;26;20888;-41
2024/04/14 04:57:46;;;;;;;12.17;11.27;;;15.00;99.90;;;;;;5433622;26;20368;-39
2024/04/14 05:00:12;;;;;;;11.73;11.13;;;15.00;99.90;;;;;;5399376;26;20269;-40
2024/04/14 05:02:38;;;;;;;11.67;11.07;;;15.10;99.90;;;;;;5402452;26;20526;-41
2024/04/14 05:05:04;;;;;;;11.53;10.90;;;15.10;99.90;;;;;;5434339;26;21048;-44
2024/04/14 05:07:32;;;;;;;12.37;11.50;;;15.10;99.90;;;;;;5432531;26;20237;-43
2024/04/14 05:09:57;;;;;;;12.13;11.53;;;15.20;99.90;;;;;;5434127;26;20288;-45
2024/04/14 05:12:23;;;;;;;12.70;11.90;;;15.20;1.00;;;;;;5431425;26;20478;-39
2024/04/14 05:14:49;;;;;;;12.30;11.70;;;15.20;1.00;;;;;;5434157;26;20229;-41
2024/04/14 05:17:14;;;;;;;12.17;11.47;;;15.30;1.00;;;;;;5434331;26;20669;-42
2024/04/14 05:19:40;;;;;;;11.93;11.23;;;15.30;1.00;;;;;;5437446;26;20226;-39
2024/04/14 05:22:05;;;;;;;11.93;11.23;;;15.40;1.00;;;;;;5435689;26;20322;-42
2024/04/14 05:24:31;;;;;;;12.17;11.47;;;15.50;99.90;;;;;;5437941;26;20303;-42
2024/04/14 05:26:56;;;;;;;11.70;11.10;;;15.60;99.90;;;;;;5437583;26;20230;-42
2024/04/14 05:29:23;;;;;;;12.37;11.67;;;15.70;99.90;;;;;;5437993;26;20296;-45
2024/04/14 05:31:49;;;;;;;11.80;11.20;;;15.90;99.90;;;;;;5434713;26;20230;-43
2024/04/14 05:34:14;;;;;;;11.73;11.03;;;16.00;1.00;;;;;;5437544;26;21024;-39
2024/04/14 05:36:40;;;;;;;11.90;11.30;;;16.10;1.00;;;;;;5436605;26;20230;-43
2024/04/14 05:39:06;;;;;;;12.80;12.20;;;16.30;1.00;;;;;;5405648;26;20261;-39
2024/04/14 05:41:31;;;;;;;12.47;11.83;;;16.40;1.00;;;;;;5435077;26;20241;-44
2024/04/14 05:43:57;;;;;;;12.00;11.40;;;16.60;1.00;;;;;;5436734;26;20229;-43
2024/04/14 05:46:23;;;;;;;12.40;11.80;;;16.80;1.00;;;;;;5435972;26;20266;-43
2024/04/14 05:48:49;;;;;;;12.50;11.80;;;17.00;99.90;;;;;;5405165;26;20238;-39
2024/04/14 05:51:15;;;;;;;12.07;11.37;;;17.20;99.90;;;;;;5436377;26;20328;-44
2024/04/14 05:53:41;;;;;;;11.80;11.20;;;17.40;99.90;;;;;;5437205;26;20960;-44
2024/04/14 05:56:07;;;;;;;11.97;11.37;;;17.60;99.90;;;;;;5435949;26;20241;-44
2024/04/14 05:58:32;;;;;;;11.83;11.13;;;17.80;96.70;;;;;;5436923;26;20508;-39
2024/04/14 06:01:12;;;;;;;12.30;11.60;;;18.00;2.60;;;;;;5404729;26;20289;-42
2024/04/14 06:03:37;;;;;;;12.80;12.13;;;18.20;1.00;;;;;;5436787;26;20242;-42
2024/04/14 06:06:03;;;;;;;12.43;11.73;;;18.40;1.00;;;;;;5442226;26;20539;-47
2024/04/14 06:08:29;;;;;;;13.00;12.00;;;18.60;1.00;;;;;;5435833;26;20230;-48
2024/04/14 06:10:55;;;;;;;11.87;11.27;;;18.80;1.00;;;;;;5434438;26;20861;-40
2024/04/14 06:13:23;;;;;;;11.50;10.80;;;18.90;1.00;;;;;;5436961;26;20280;-43
2024/04/14 06:15:49;;;;;;;12.00;11.40;;;19.10;1.00;;;;;;5436451;26;20877;-39
2024/04/14 06:18:14;;;;;;;11.60;10.90;;;19.20;1.00;;;;;;5435350;26;20512;-42
2024/04/14 06:20:40;;;;;;;11.67;10.97;;;19.40;1.00;;;;;;5435623;26;20285;-44
2024/04/14 06:23:06;;;;;;;12.23;11.53;;;19.40;1.00;;;;;;5435780;26;20358;-39
2024/04/14 06:25:32;;;;;;;11.80;11.30;;;19.60;1.00;;;;;;5434884;26;20226;-42
2024/04/14 06:27:58;;;;;;;12.43;11.63;;;19.60;1.00;;;;;;5435058;26;20835;-39
2024/04/14 06:30:23;;;;;;;12.67;11.67;;;19.60;1.00;;;;;;5434778;26;20288;-42
2024/04/14 06:32:50;;;;;;;12.30;11.70;;;19.60;1.00;;;;;;5431638;26;20621;-41
2024/04/14 06:35:16;;;;;;;12.57;11.90;;;19.70;1.00;;;;;;5431527;26;20622;-40
2024/04/14 06:37:42;;;;;;;11.63;11.03;;;19.80;1.00;;;;;;5433616;26;21057;-41
2024/04/14 06:40:09;;;;;;;13.00;12.20;;;19.90;1.00;;;;;;5434592;26;20448;-42
2024/04/14 06:42:35;;;;;;;12.00;11.40;;;19.90;1.00;;;;;;5401127;26;20334;-40
2024/04/14 06:45:00;;;;;;;11.97;11.47;;;20.00;1.00;;;;;;5435524;26;20463;-38
2024/04/14 06:47:26;;;;;;;12.40;11.70;;;20.10;1.00;;;;;;5437595;26;20234;-45
2024/04/14 06:49:51;;;;;;;12.90;12.20;;;20.00;1.00;;;;;;5435744;26;20241;-51
2024/04/14 06:52:17;;;;;;;12.10;11.50;;;20.10;1.00;;;;;;5433929;26;20327;-49
2024/04/14 06:54:42;;;;;;;12.30;11.60;;;20.00;1.00;;;;;;5438060;26;20272;-44
2024/04/14 06:57:08;;;;;;;13.00;12.20;;;20.10;1.00;;;;;;5436634;26;20226;-47
2024/04/14 06:59:34;;;;;;;12.17;11.57;;;20.10;1.00;;;;;;5435366;26;20241;-40
2024/04/14 07:02:00;;;;;;;12.40;11.70;;;20.10;1.00;;;;;;5436891;26;20683;-41
2024/04/14 07:04:26;;;;;;;12.57;11.97;;;20.10;1.00;;;;;;5434691;26;20456;-38
2024/04/14 07:06:51;;;;;;;12.17;11.43;;;20.00;1.00;;;;;;5436033;26;20226;-38
2024/04/14 07:09:17;;;;;;;12.50;11.80;;;20.10;1.00;;;;;;5432381;26;21090;-39
2024/04/14 07:11:43;;;;;;;12.37;11.50;;;20.10;1.00;;;;;;5434888;26;20226;-41
2024/04/14 07:14:08;;;;;;;12.23;11.63;;;20.20;1.00;;;;;;5430530;26;20280;-41
2024/04/14 07:16:34;;;;;;;12.80;12.13;;;20.20;1.00;;;;;;5434736;26;20292;-41
2024/04/14 07:18:59;;;;;;;12.13;11.40;;;20.20;1.00;;;;;;5433558;26;20226;-40
2024/04/14 07:21:25;;;;;;;13.17;12.43;;;20.20;1.00;;;;;;5434442;26;20225;-39
2024/04/14 07:23:51;;;;;;;12.50;11.57;;;20.10;1.00;;;;;;5434530;26;20230;-42
2024/04/14 07:26:16;;;;;;;12.70;12.07;;;20.20;1.00;;;;;;5437790;26;20230;-43
2024/04/14 07:28:42;;;;;;;12.40;11.80;;;20.30;1.00;;;;;;5437402;26;20226;-41
2024/04/14 07:31:07;;;;;;;12.30;11.40;;;20.40;1.00;;;;;;5430817;26;20246;-50
2024/04/14 07:33:35;;;;;;;11.90;11.30;;;20.50;1.00;;;;;;5433712;26;20230;-53
2024/04/14 07:36:00;;;;;;;12.53;11.87;;;20.60;1.00;;;;;;5435960;26;20957;-50
2024/04/14 07:38:26;;;;;;;12.03;11.17;;;20.70;1.00;;;;;;5435714;26;20460;-45
2024/04/14 07:40:52;;;;;;;12.60;11.70;;;20.80;1.00;;;;;;5437083;26;20242;-51
2024/04/14 07:43:17;;;;;;;12.60;11.90;;;20.90;1.00;;;;;;5436022;26;20755;-53
2024/04/14 07:45:43;;;;;;;11.83;11.23;;;21.00;99.90;;;;;;5418729;26;20238;-47
2024/04/14 07:48:08;;;;;;;13.13;12.33;;;21.10;99.90;;;;;;5423591;26;20334;-49
2024/04/14 07:50:36;;;;;;;13.23;12.33;;;21.10;99.90;;;;;;5431500;26;20226;-50
2024/04/14 07:53:02;;;;;;;12.30;11.60;;;21.20;99.90;;;;;;5433795;26;20242;-48
2024/04/14 07:55:27;;;;;;;12.70;12.00;;;21.30;99.90;;;;;;5432809;26;20569;-49
2024/04/14 07:57:53;;;;;;;12.97;12.27;;;21.40;99.90;;;;;;5434359;26;20226;-51
2024/04/14 08:00:19;;;;;;;12.77;12.07;;;21.30;99.90;;;;;;5434239;26;20696;-48
2024/04/14 08:02:45;;;;;;;12.23;11.53;;;21.40;99.90;;;;;;5431316;26;20587;-46
2024/04/14 08:05:10;;;;;;;13.93;12.70;;;21.50;99.90;;;;;;5432291;26;21176;-47
2024/04/14 08:07:36;;;;;;;13.03;12.23;;;21.40;99.90;;;;;;5433647;26;20819;-51
2024/04/14 08:10:02;;;;;;;13.30;12.50;;;21.20;99.90;;;;;;5434201;26;20734;-51
2024/04/14 08:12:28;;;;;;;13.37;12.53;;;21.20;99.90;;;;;;5432236;26;20249;-48
2024/04/14 08:14:54;;;;;;;12.20;11.50;;;21.10;99.90;;;;;;5434401;26;20226;-50
2024/04/14 08:17:19;;;;;;;12.97;12.17;;;21.10;99.90;;;;;;5431566;26;22320;-39
2024/04/14 08:19:45;;;;;;;14.00;13.00;;;21.20;99.90;;;;;;5434808;26;20226;-43
2024/04/14 08:22:10;;;;;;;12.40;11.60;;;21.10;99.90;;;;;;5431820;26;20229;-44
2024/04/14 08:24:36;;;;;;;14.33;13.43;;;21.10;99.90;;;;;;5432156;26;20365;-40
2024/04/14 08:27:02;;;;;;;13.20;12.40;;;21.00;99.90;;;;;;5433993;26;20238;-52
2024/04/14 08:29:27;;;;;;;12.33;11.57;;;21.00;99.90;;;;;;5432455;26;20709;-39
2024/04/14 08:31:55;;;;;;;13.60;12.83;;;21.10;99.90;;;;;;5433350;26;20666;-43
2024/04/14 08:34:21;;;;;;;13.33;12.60;;;21.20;99.90;;;;;;5431161;26;20273;-44
2024/04/14 08:36:47;;;;;;;13.00;12.30;;;21.40;99.90;;;;;;5428906;26;20467;-43
2024/04/14 08:39:14;;;;;;;12.87;12.17;;;21.50;99.90;;;;;;5431518;26;20285;-45
2024/04/14 08:41:41;;;;;;;13.67;12.77;;;21.40;99.90;;;;;;5433604;26;20354;-42
2024/04/14 08:44:10;;;;;;;13.60;12.80;;;21.20;99.90;;;;;;5433870;26;20508;-38
2024/04/14 08:46:36;;;;;;;13.37;12.67;;;21.30;99.90;;;;;;5433063;26;21407;-39
2024/04/14 08:49:04;;;;;;;14.87;13.67;;;21.30;99.90;;;;;;5433063;26;20467;-39
2024/04/14 08:51:29;;;;;;;13.60;12.73;;;21.30;99.90;;;;;;5434131;26;21103;-40
2024/04/14 08:53:56;;;;;;;13.37;12.60;;;21.40;99.90;;;;;;5404993;26;20467;-42
2024/04/14 08:56:30;;;;;;;12.87;12.17;;;21.50;99.90;;;;;;5402408;26;20281;-40
2024/04/14 08:59:05;;;;;;;12.90;12.00;;;21.70;99.90;;;;;;5437557;26;20459;-39
2024/04/14 09:01:31;;;;;;;13.37;12.60;;;21.90;99.90;;;;;;5436221;26;20907;-39
2024/04/14 09:03:56;;;;;;;13.90;13.10;;;21.90;99.90;;;;;;5433147;26;20471;-42
2024/04/14 09:06:23;;;;;;;13.83;13.03;;;22.00;99.90;;;;;;5436858;26;20554;-49
2024/04/14 09:08:49;;;;;;;14.80;13.80;;;22.20;99.90;;;;;;5435534;26;20266;-46
2024/04/14 09:11:14;;;;;;;12.80;12.10;;;22.60;99.90;;;;;;5435782;26;20467;-39
2024/04/14 09:13:40;;;;;;;12.80;12.10;;;23.00;99.90;;;;;;5436372;26;20242;-41
2024/04/14 09:16:08;;;;;;;14.33;13.23;;;23.50;99.90;;;;;;5436292;26;21481;-39
2024/04/14 09:18:35;;;;;;;13.27;12.47;;;23.80;99.90;;;;;;5434930;26;20237;-40
2024/04/14 09:21:01;;;;;;;13.77;12.97;;;24.10;99.90;;;;;;5433162;26;20459;-41
2024/04/14 09:23:28;;;;;;;12.77;12.07;;;24.30;99.90;;;;;;5431645;26;20447;-44
2024/04/14 09:25:53;;;;;;;13.80;13.00;;;24.50;99.90;;;;;;5431599;26;20451;-41
2024/04/14 09:28:19;;;;;;;12.77;11.93;;;24.90;99.90;;;;;;5432156;26;20561;-41
2024/04/14 09:30:45;;;;;;;13.20;12.30;;;24.80;99.90;;;;;;5429701;26;20306;-39
2024/04/14 09:33:11;;;;;;;12.97;12.17;;;24.90;99.90;;;;;;5433867;26;20226;-39
2024/04/14 09:35:37;;;;;;;12.77;12.07;;;25.30;99.90;;;;;;5434943;26;20230;-38
2024/04/14 09:38:07;;;;;;;13.73;13.03;;;25.40;99.90;;;;;;5433230;26;20515;-39
2024/04/14 09:40:36;;;;;;;13.80;13.00;;;25.10;99.90;;;;;;5402921;26;20265;-44
2024/04/14 09:43:03;;;;;;;12.43;11.53;;;24.70;99.90;;;;;;5436229;26;20915;-43
2024/04/14 09:45:30;;;;;;;12.93;12.13;;;24.70;99.90;;;;;;5436842;26;20607;-41
2024/04/14 09:47:57;;;;;;;12.97;12.27;;;24.90;99.90;;;;;;5433464;26;20589;-43
2024/04/14 09:50:23;;;;;;;12.67;11.97;;;25.10;99.90;;;;;;5437090;26;21111;-43
2024/04/14 09:52:50;;;;;;;13.07;12.33;;;25.30;99.90;;;;;;5437157;26;20490;-41
2024/04/14 09:55:16;;;;;;;13.00;12.30;;;25.40;99.90;;;;;;5436322;26;20515;-44
2024/04/14 09:57:41;;;;;;;13.20;12.40;;;25.80;99.90;;;;;;5431179;26;20808;-50
2024/04/14 10:00:10;;;;;;;14.40;13.20;;;26.20;99.90;;;;;;5430909;26;20476;-47
2024/04/14 10:02:41;;;;;;;13.30;12.60;;;26.50;99.90;;;;;;5434374;26;20226;-48
2024/04/14 10:05:09;;;;;;;12.60;11.87;;;26.50;99.90;;;;;;5434902;26;20475;-51
2024/04/14 10:07:37;;;;;;;12.70;12.00;;;26.10;99.90;;;;;;5435391;26;20519;-53
2024/04/14 10:10:05;;;;;;;12.63;11.93;;;25.70;99.90;;;;;;5434564;26;20503;-49
2024/04/14 10:12:33;;;;;;;13.03;12.33;;;25.10;99.90;;;;;;5432680;26;21131;-53
2024/04/14 10:15:05;;;;;;;13.20;12.50;;;24.70;99.90;;;;;;5435890;26;20614;-47
2024/04/14 10:17:35;;;;;;;12.90;12.20;;;24.40;99.90;;;;;;5434666;26;20452;-42
2024/04/14 10:20:03;;;;;;;12.00;11.30;;;24.60;99.90;;;;;;5432333;26;20452;-44
2024/04/14 10:22:35;;;;;;;12.73;11.90;;;25.10;99.90;;;;;;5435357;26;20499;-41
2024/04/14 10:25:01;;;;;;;12.60;11.80;;;25.30;99.90;;;;;;5435597;26;20936;-43
2024/04/14 10:27:30;;;;;;;12.93;12.23;;;25.40;99.90;;;;;;5429941;26;20464;-42
2024/04/14 10:30:06;;;;;;;12.10;11.50;;;25.60;99.90;;;;;;5435702;26;21046;-43
2024/04/14 10:32:31;;;;;;;13.60;12.70;;;25.80;99.90;;;;;;5433850;26;20459;-45
2024/04/14 10:34:57;;;;;;;12.67;11.93;;;25.80;99.90;;;;;;5435556;26;20535;-46
2024/04/14 10:37:27;;;;;;;12.27;11.47;;;26.10;99.90;;;;;;5434855;26;20242;-48
2024/04/14 10:39:55;;;;;;;13.40;12.60;;;26.30;99.90;;;;;;5432978;26;20360;-44
2024/04/14 10:42:23;;;;;;;13.50;12.73;;;26.70;99.90;;;;;;5435779;26;20498;-46
2024/04/14 10:44:49;;;;;;;13.67;12.50;;;26.40;99.90;;;;;;5431356;26;20455;-48
2024/04/14 10:47:19;;;;;;;12.33;11.53;;;26.00;99.90;;;;;;5433849;26;20650;-47
2024/04/14 10:49:47;;;;;;;13.23;12.33;;;25.80;99.90;;;;;;5434978;26;20475;-42
2024/04/14 10:52:14;;;;;;;13.43;12.43;;;25.40;99.90;;;;;;5436178;26;20515;-45
2024/04/14 10:54:41;;;;;;;12.60;11.90;;;25.20;99.90;;;;;;5436401;26;20455;-45
2024/04/14 10:57:08;;;;;;;13.47;12.57;;;25.30;99.90;;;;;;5434406;26;20510;-48
2024/04/14 10:59:34;;;;;;;13.13;12.43;;;25.30;99.90;;;;;;5434118;26;20474;-47
2024/04/14 11:02:00;;;;;;;12.47;11.77;;;25.00;99.90;;;;;;5434057;26;20516;-44
2024/04/14 11:04:27;;;;;;;13.13;12.43;;;24.60;99.90;;;;;;5432402;26;20506;-46
2024/04/14 11:06:54;;;;;;;13.90;13.10;;;24.60;99.90;;;;;;5434283;26;20613;-45
2024/04/14 11:09:20;;;;;;;13.30;12.50;;;24.40;99.90;;;;;;5434736;26;20909;-46
2024/04/14 11:11:46;;;;;;;13.00;12.30;;;23.80;99.90;;;;;;5434905;26;20548;-45
2024/04/14 11:14:17;;;;;;;13.33;12.53;;;23.70;99.90;;;;;;5434062;26;20530;-44
2024/04/14 11:16:43;;;;;;;14.20;13.40;;;23.50;99.90;;;;;;5436336;26;20452;-46
2024/04/14 11:19:09;;;;;;;12.67;11.97;;;23.70;99.90;;;;;;5436465;26;20523;-48
2024/04/14 11:21:35;;;;;;;12.87;12.17;;;23.80;99.90;;;;;;5433652;26;20292;-49
2024/04/14 11:24:01;;;;;;;12.43;11.73;;;24.30;99.90;;;;;;5402960;26;20463;-48
2024/04/14 11:26:27;;;;;;;12.43;11.73;;;24.80;99.90;;;;;;5433659;26;20330;-49
2024/04/14 11:28:53;;;;;;;12.03;11.30;;;25.30;99.90;;;;;;5431167;26;20233;-47
2024/04/14 11:31:19;;;;;;;12.87;12.10;;;25.50;99.90;;;;;;5430278;26;20467;-46
2024/04/14 11:33:54;;;;;;;11.60;11.00;;;25.80;99.90;;;;;;5433909;26;20226;-46
2024/04/14 11:36:20;;;;;;;12.20;11.50;;;26.80;99.90;;;;;;5433634;26;20523;-49
2024/04/14 11:38:52;;;;;;;11.97;11.37;;;27.40;99.90;;;;;;5433862;26;20444;-47
2024/04/14 11:41:18;;;;;;;13.07;12.47;;;27.80;99.90;;;;;;5435913;26;20230;-46
2024/04/14 11:43:43;;;;;;;11.60;11.10;;;27.10;99.90;;;;;;5434975;26;20456;-47
2024/04/14 11:46:09;;;;;;;11.23;10.53;;;26.60;99.90;;;;;;5433545;26;20285;-45
2024/04/14 11:48:34;;;;;;;10.90;10.30;;;26.10;99.90;;;;;;5431509;26;20230;-48
2024/04/14 11:51:00;;;;;;;11.23;10.73;;;26.30;99.90;;;;;;5401334;26;20229;-44
2024/04/14 11:53:26;;;;;;;11.93;11.30;;;26.10;99.90;;;;;;5432128;26;20241;-47
2024/04/14 11:55:51;;;;;;;11.20;10.40;;;26.00;99.90;;;;;;5432032;26;20758;-46
2024/04/14 11:58:22;;;;;;;11.57;11.00;;;25.40;99.90;;;;;;5434270;26;20305;-49
2024/04/14 12:00:48;;;;;;;11.37;10.77;;;25.00;99.90;;;;;;5433943;26;20264;-51
2024/04/14 12:03:13;;;;;;;11.03;10.47;;;24.90;99.90;;;;;;5434321;26;20463;-43
2024/04/14 12:05:39;;;;;;;10.43;10.03;;;25.50;99.90;;;;;;5403643;26;20467;-49
2024/04/14 12:08:05;;;;;;;10.43;9.63;;;26.40;99.90;;;;;;5433295;26;20253;-46
2024/04/14 12:10:31;;;;;;;11.07;10.50;;;27.10;99.90;;;;;;5434376;26;20291;-45
2024/04/14 12:12:56;;;;;;;10.20;9.70;;;27.00;99.90;;;;;;5433290;26;20268;-46
2024/04/14 12:15:22;;;;;;;11.17;10.60;;;26.60;99.90;;;;;;5433348;26;20311;-47
2024/04/14 12:17:47;;;;;;;10.80;10.20;;;26.20;99.90;;;;;;5432208;26;20241;-44
2024/04/14 12:20:13;;;;;;;11.33;10.80;;;25.90;99.90;;;;;;5388308;26;20241;-46
2024/04/14 12:22:39;;;;;;;11.13;10.63;;;25.60;99.90;;;;;;5434726;26;20225;-46
2024/04/14 12:25:06;;;;;;;12.93;12.23;;;25.10;99.90;;;;;;5434600;26;20241;-45